Time;durP1;ratioP1;P1;durP2;ratioP2;P2;SDS_P1;SDS_P2;PMS_P1;PMS_P2;Temp;Humidity;BMP_temperature;BMP_pressure;BME280_temperature;BME280_humidity;BME280_pressure;Samples;Min_cycle;Max_cycle;Signal;HPM_P1;HPM_P2
2022/01/10 07:55:25;;;;;;;59.10;18.13;;;1.30;67.20;;;;;;5091894;27;21143;-64
2022/01/10 07:57:51;;;;;;;57.60;18.73;;;0.90;71.90;;;;;;5075870;28;20461;-66
2022/01/10 08:00:18;;;;;;;57.80;18.50;;;1.10;75.00;;;;;;5078421;28;20480;-65
2022/01/10 08:02:45;;;;;;;59.80;21.17;;;1.30;74.00;;;;;;5064392;28;20473;-66
2022/01/10 08:05:12;;;;;;;61.50;21.67;;;1.50;71.90;;;;;;5065010;28;20458;-66
2022/01/10 08:07:39;;;;;;;62.00;21.30;;;1.70;69.80;;;;;;5066559;28;20457;-66
2022/01/10 08:10:07;;;;;;;60.27;18.20;;;1.90;67.80;;;;;;5063876;28;21053;-64
2022/01/10 08:12:35;;;;;;;54.50;18.43;;;2.10;65.40;;;;;;5065910;28;20470;-64
2022/01/10 08:15:02;;;;;;;57.93;18.30;;;2.30;62.70;;;;;;5059214;28;20492;-64
2022/01/10 08:17:29;;;;;;;55.37;18.43;;;2.50;60.70;;;;;;5052610;28;20432;-63
2022/01/10 08:19:56;;;;;;;55.27;16.43;;;2.60;60.30;;;;;;5065458;28;20504;-64
2022/01/10 08:22:23;;;;;;;56.10;19.80;;;2.70;59.20;;;;;;5065326;28;20468;-64
2022/01/10 08:24:51;;;;;;;53.10;16.10;;;2.90;58.50;;;;;;5062814;28;20472;-67
2022/01/10 08:27:18;;;;;;;57.07;14.90;;;3.00;57.90;;;;;;5063818;28;20453;-68
2022/01/10 08:29:48;;;;;;;54.47;14.17;;;3.10;57.40;;;;;;5071243;28;20809;-65
2022/01/10 08:32:15;;;;;;;52.90;15.47;;;3.20;56.80;;;;;;5066414;28;20493;-64
2022/01/10 08:34:42;;;;;;;54.43;14.57;;;3.30;56.30;;;;;;5065647;28;20476;-65
2022/01/10 08:37:09;;;;;;;52.50;14.50;;;3.40;55.60;;;;;;5060881;28;20967;-66
2022/01/10 08:39:36;;;;;;;49.90;15.00;;;3.50;55.20;;;;;;5060672;28;20484;-65
2022/01/10 08:42:03;;;;;;;49.17;12.80;;;3.60;55.00;;;;;;5062248;28;20461;-71
2022/01/10 08:44:30;;;;;;;50.30;13.73;;;3.70;54.30;;;;;;5067025;28;20461;-64
2022/01/10 08:46:58;;;;;;;49.77;14.70;;;3.70;53.90;;;;;;5061417;28;20473;-65
2022/01/10 08:49:25;;;;;;;48.30;14.20;;;3.80;53.50;;;;;;5062884;28;20465;-66
2022/01/10 08:51:54;;;;;;;47.67;12.73;;;3.90;53.10;;;;;;5062867;28;20866;-63
2022/01/10 08:54:22;;;;;;;52.53;13.50;;;4.00;52.70;;;;;;5064008;28;20575;-67
2022/01/10 08:56:49;;;;;;;45.97;14.00;;;4.10;52.30;;;;;;5060757;28;20501;-66
2022/01/10 08:59:15;;;;;;;49.20;13.83;;;4.10;52.60;;;;;;5060776;28;20542;-64
2022/01/10 09:01:42;;;;;;;51.40;14.83;;;4.20;51.50;;;;;;5062196;28;20481;-64
2022/01/10 09:04:15;;;;;;;49.10;13.50;;;4.20;50.90;;;;;;5067811;28;20461;-65
2022/01/10 09:06:43;;;;;;;46.40;12.93;;;4.30;50.70;;;;;;5052214;28;20492;-71
2022/01/10 09:09:10;;;;;;;51.73;13.70;;;4.30;50.30;;;;;;5038689;28;20500;-71
2022/01/10 09:11:38;;;;;;;47.60;13.83;;;4.40;50.20;;;;;;5051456;28;20492;-66
2022/01/10 09:14:04;;;;;;;54.20;13.10;;;4.40;49.80;;;;;;5050381;28;20478;-66
2022/01/10 09:16:31;;;;;;;52.47;15.97;;;4.40;49.60;;;;;;5049916;28;21005;-66
2022/01/10 09:18:58;;;;;;;52.53;16.90;;;4.50;49.30;;;;;;5047105;28;20564;-66
2022/01/10 09:21:26;;;;;;;56.33;19.43;;;4.50;49.10;;;;;;5045699;28;20509;-65
2022/01/10 09:23:53;;;;;;;58.73;21.50;;;4.50;48.80;;;;;;5046692;28;20458;-64
2022/01/10 09:26:19;;;;;;;65.57;27.00;;;4.60;48.60;;;;;;5051318;28;20469;-66
2022/01/10 09:28:47;;;;;;;69.33;25.90;;;4.70;48.50;;;;;;5034253;28;20459;-66
2022/01/10 09:31:14;;;;;;;68.23;24.67;;;4.70;48.40;;;;;;5047568;28;20498;-65
2022/01/10 09:33:42;;;;;;;65.87;23.30;;;4.80;48.20;;;;;;5050984;28;20963;-68
2022/01/10 09:36:09;;;;;;;59.60;21.50;;;4.90;47.90;;;;;;5049510;28;20462;-66
2022/01/10 09:38:37;;;;;;;59.10;20.50;;;5.00;47.80;;;;;;5049696;28;20891;-66
2022/01/10 09:41:04;;;;;;;65.60;19.93;;;5.20;47.50;;;;;;5049085;28;21292;-67
2022/01/10 09:43:31;;;;;;;58.73;20.03;;;5.40;46.90;;;;;;5047457;28;20474;-66
2022/01/10 09:45:57;;;;;;;56.90;19.43;;;5.70;46.50;;;;;;5049488;28;20462;-66
2022/01/10 09:48:24;;;;;;;54.57;17.50;;;5.90;45.60;;;;;;5051392;28;20477;-67
2022/01/10 09:50:51;;;;;;;52.93;17.50;;;6.00;44.60;;;;;;5055423;28;20517;-68
2022/01/10 09:53:21;;;;;;;48.23;12.80;;;6.00;44.20;;;;;;5048564;28;20478;-67
2022/01/10 09:55:49;;;;;;;46.77;12.77;;;6.00;43.90;;;;;;5044091;28;21044;-65
2022/01/10 09:58:16;;;;;;;49.80;13.93;;;6.00;44.40;;;;;;5043467;28;20473;-66
2022/01/10 10:00:45;;;;;;;50.23;16.00;;;6.10;43.30;;;;;;5045533;28;20899;-67
2022/01/10 10:03:11;;;;;;;44.83;10.97;;;6.30;43.50;;;;;;5037835;28;20497;-67
2022/01/10 10:05:38;;;;;;;43.43;11.17;;;6.30;42.90;;;;;;5054580;28;20462;-70
2022/01/10 10:08:05;;;;;;;46.47;12.07;;;6.40;43.20;;;;;;5043554;28;20470;-69
2022/01/10 10:10:33;;;;;;;44.30;11.87;;;6.50;42.10;;;;;;5045765;28;20478;-70
2022/01/10 10:13:01;;;;;;;46.20;12.23;;;6.50;41.90;;;;;;5046072;28;20465;-69
2022/01/10 10:15:31;;;;;;;46.53;12.97;;;6.50;41.90;;;;;;5049007;28;20489;-66
2022/01/10 10:17:58;;;;;;;49.70;12.53;;;6.60;41.10;;;;;;5049088;28;20466;-68
2022/01/10 10:20:25;;;;;;;45.07;12.57;;;6.70;41.00;;;;;;5048346;28;20859;-69
2022/01/10 10:22:54;;;;;;;44.70;11.17;;;6.70;40.60;;;;;;5050677;28;21007;-65
2022/01/10 10:25:22;;;;;;;41.90;10.60;;;6.70;40.40;;;;;;5048315;28;20458;-65
2022/01/10 10:27:50;;;;;;;46.43;11.13;;;6.70;40.40;;;;;;5043636;28;20490;-66
2022/01/10 10:30:21;;;;;;;46.17;11.63;;;6.70;40.30;;;;;;5047269;28;20514;-66
2022/01/10 10:32:50;;;;;;;44.23;12.07;;;6.60;39.70;;;;;;5048245;28;20474;-65
2022/01/10 10:35:18;;;;;;;52.63;12.30;;;6.60;39.70;;;;;;5044965;28;20507;-66
2022/01/10 10:37:48;;;;;;;49.40;11.53;;;6.50;39.90;;;;;;5045328;28;20466;-64
2022/01/10 10:40:16;;;;;;;44.40;11.10;;;6.60;40.10;;;;;;5053126;28;20493;-65
2022/01/10 10:42:45;;;;;;;47.67;11.37;;;6.60;40.10;;;;;;5046640;28;20466;-65
2022/01/10 10:45:14;;;;;;;46.70;11.13;;;6.70;39.90;;;;;;5045817;28;20549;-65
2022/01/10 10:47:44;;;;;;;43.67;11.43;;;6.70;39.50;;;;;;5049083;28;20470;-65
2022/01/10 10:50:12;;;;;;;44.90;12.30;;;6.70;39.30;;;;;;5054682;28;20489;-64
2022/01/10 10:52:41;;;;;;;45.73;10.97;;;6.80;39.10;;;;;;5048051;28;21797;-65
2022/01/10 10:55:11;;;;;;;46.10;11.30;;;6.80;38.90;;;;;;5050145;28;20481;-65
2022/01/10 10:57:38;;;;;;;43.60;10.83;;;6.90;38.70;;;;;;5049156;28;20474;-67
2022/01/10 11:00:06;;;;;;;46.23;11.43;;;7.00;38.20;;;;;;5049475;28;21551;-64
2022/01/10 11:02:33;;;;;;;44.20;10.80;;;7.00;38.30;;;;;;5048753;28;20466;-65
2022/01/10 11:05:05;;;;;;;49.37;10.57;;;7.00;38.20;;;;;;5049698;28;20450;-65
2022/01/10 11:07:34;;;;;;;42.67;10.90;;;7.00;37.90;;;;;;5048942;28;20546;-66
2022/01/10 11:10:01;;;;;;;44.30;11.53;;;7.00;38.10;;;;;;5048186;28;20521;-65
2022/01/10 11:12:29;;;;;;;47.90;11.10;;;7.10;38.20;;;;;;5048999;28;20464;-66
2022/01/10 11:14:59;;;;;;;43.50;12.00;;;7.10;38.30;;;;;;5048265;28;20482;-64
2022/01/10 11:17:26;;;;;;;47.73;11.07;;;7.20;38.30;;;;;;5038356;28;20437;-65
2022/01/10 11:20:13;;;;;;;48.40;11.70;;;7.30;37.60;;;;;;5043618;28;21047;-66
2022/01/10 11:22:41;;;;;;;46.73;11.10;;;7.40;37.10;;;;;;5048681;28;20857;-66
2022/01/10 11:25:21;;;;;;;45.33;11.37;;;7.50;37.10;;;;;;5056865;28;20465;-67
2022/01/10 11:27:48;;;;;;;44.60;13.10;;;7.60;36.60;;;;;;5047923;28;20496;-65
2022/01/10 11:30:34;;;;;;;47.70;10.40;;;7.60;36.20;;;;;;5051619;28;20795;-65
2022/01/10 11:33:05;;;;;;;41.43;9.17;;;7.70;35.60;;;;;;5044456;28;20466;-68
2022/01/10 11:35:34;;;;;;;46.63;10.80;;;7.80;35.80;;;;;;5045487;28;20469;-66
2022/01/10 11:38:15;;;;;;;53.23;10.90;;;7.80;35.00;;;;;;5049030;28;20454;-68
2022/01/10 11:40:42;;;;;;;41.90;10.23;;;7.80;35.00;;;;;;5045579;28;20497;-67
2022/01/10 11:43:09;;;;;;;45.63;11.00;;;7.80;34.70;;;;;;5037297;28;20466;-66
2022/01/10 11:45:42;;;;;;;43.60;10.13;;;7.70;35.10;;;;;;5049149;28;20450;-67
2022/01/10 11:48:16;;;;;;;44.40;10.37;;;7.70;34.50;;;;;;5052909;28;20461;-66
2022/01/10 11:50:47;;;;;;;48.00;10.97;;;7.60;33.80;;;;;;5045456;28;20568;-67
2022/01/10 11:53:17;;;;;;;52.80;11.20;;;7.60;34.50;;;;;;5044401;28;20494;-66
2022/01/10 11:55:51;;;;;;;42.93;10.87;;;7.50;34.70;;;;;;5047770;28;21074;-65
2022/01/10 11:58:20;;;;;;;44.77;10.20;;;7.40;34.10;;;;;;5048304;28;20461;-66
2022/01/10 12:00:50;;;;;;;42.83;9.50;;;7.30;34.60;;;;;;5048622;28;20481;-66
2022/01/10 12:03:19;;;;;;;41.07;9.00;;;7.10;35.20;;;;;;5048138;28;20528;-65
2022/01/10 12:05:48;;;;;;;41.97;8.70;;;7.00;35.80;;;;;;5049611;28;20462;-66
2022/01/10 12:08:14;;;;;;;41.50;10.13;;;6.90;35.60;;;;;;5039085;28;20436;-66
2022/01/10 12:10:41;;;;;;;41.20;8.40;;;6.90;35.50;;;;;;5047012;28;20484;-64
2022/01/10 12:13:11;;;;;;;43.60;9.63;;;6.80;35.70;;;;;;5047360;28;20458;-63
2022/01/10 12:15:39;;;;;;;45.80;9.33;;;6.80;35.90;;;;;;5043721;28;20489;-64
2022/01/10 12:18:07;;;;;;;39.47;8.13;;;6.80;36.00;;;;;;5041032;28;20537;-67
2022/01/10 12:20:34;;;;;;;42.80;8.30;;;6.70;36.40;;;;;;5047979;28;20571;-64
2022/01/10 12:23:02;;;;;;;43.53;8.27;;;6.70;36.50;;;;;;5049123;28;20461;-64
2022/01/10 12:25:29;;;;;;;41.07;9.20;;;6.80;36.00;;;;;;5045797;28;20457;-65
2022/01/10 12:28:00;;;;;;;41.27;8.30;;;6.90;35.60;;;;;;5048939;28;20461;-65
2022/01/10 12:30:27;;;;;;;40.00;7.30;;;6.90;35.10;;;;;;5039878;28;20519;-66
2022/01/10 12:32:54;;;;;;;41.23;6.80;;;7.00;35.30;;;;;;5052114;28;20469;-67
2022/01/10 12:35:21;;;;;;;43.57;7.30;;;7.00;35.00;;;;;;5055397;28;21073;-64
2022/01/10 12:37:48;;;;;;;39.77;6.93;;;7.00;34.80;;;;;;5048637;28;20469;-65
2022/01/10 12:40:16;;;;;;;45.47;7.97;;;6.90;35.00;;;;;;5048973;28;20484;-67
2022/01/10 12:42:48;;;;;;;43.57;7.60;;;6.80;34.50;;;;;;5045472;28;20458;-66
2022/01/10 12:45:15;;;;;;;39.17;7.33;;;6.70;34.90;;;;;;5055229;28;20489;-67
2022/01/10 12:47:46;;;;;;;43.47;8.30;;;6.70;35.00;;;;;;5050245;28;20461;-64
2022/01/10 12:50:13;;;;;;;39.63;8.17;;;6.60;35.10;;;;;;5052338;28;20510;-64
2022/01/10 12:52:41;;;;;;;41.47;9.10;;;6.60;35.10;;;;;;5052472;28;20894;-66
2022/01/10 12:55:09;;;;;;;43.57;8.70;;;6.50;35.10;;;;;;5047685;28;20604;-67
2022/01/10 12:57:37;;;;;;;40.30;8.00;;;6.50;35.50;;;;;;5048677;28;20554;-66
2022/01/10 13:00:07;;;;;;;43.87;7.90;;;6.50;35.70;;;;;;5049769;28;21021;-64
2022/01/10 13:02:34;;;;;;;39.70;8.13;;;6.50;35.50;;;;;;5047112;28;20512;-66
2022/01/10 13:05:05;;;;;;;40.20;7.97;;;6.40;35.80;;;;;;5049825;28;20489;-67
2022/01/10 13:07:32;;;;;;;41.90;10.50;;;6.40;36.10;;;;;;5044001;28;20537;-68
2022/01/10 13:10:05;;;;;;;46.13;11.20;;;6.30;36.30;;;;;;5051533;28;20486;-66
2022/01/10 13:12:33;;;;;;;45.10;9.33;;;6.30;36.70;;;;;;5056413;28;20990;-66
2022/01/10 13:15:13;;;;;;;43.23;8.23;;;6.30;36.70;;;;;;5052037;28;20482;-66
2022/01/10 13:17:51;;;;;;;41.00;8.67;;;6.20;36.90;;;;;;5044176;28;21231;-66
2022/01/10 13:20:20;;;;;;;43.30;11.00;;;6.20;37.00;;;;;;5060811;22;20454;-64
2022/01/10 13:22:46;;;;;;;43.53;10.30;;;6.20;37.20;;;;;;4995632;28;20461;-67
2022/01/10 13:25:17;;;;;;;43.87;10.33;;;6.10;37.40;;;;;;4991635;28;20453;-64
2022/01/10 13:27:50;;;;;;;44.10;10.80;;;6.10;37.40;;;;;;4989260;28;20469;-65
2022/01/10 13:30:24;;;;;;;42.97;10.10;;;6.10;37.60;;;;;;4987448;28;20567;-66
2022/01/10 13:32:54;;;;;;;45.10;11.07;;;6.10;37.80;;;;;;4963993;28;20467;-65
2022/01/10 13:35:21;;;;;;;41.47;9.37;;;6.20;38.10;;;;;;4963291;28;20485;-64
2022/01/10 13:37:49;;;;;;;42.67;11.37;;;6.20;38.10;;;;;;4960886;28;20474;-64
2022/01/10 13:40:18;;;;;;;44.83;10.93;;;6.20;38.20;;;;;;4968634;28;20482;-66
2022/01/10 13:42:50;;;;;;;41.63;9.77;;;6.20;38.30;;;;;;4957125;28;20466;-65
2022/01/10 13:45:21;;;;;;;45.10;9.93;;;6.20;38.20;;;;;;4967327;28;20567;-64
2022/01/10 13:48:00;;;;;;;45.63;9.23;;;6.20;38.00;;;;;;4963621;28;20465;-62
2022/01/10 13:50:29;;;;;;;42.93;10.20;;;6.20;37.80;;;;;;4975993;28;20536;-62
2022/01/10 13:53:08;;;;;;;44.63;10.20;;;6.20;37.60;;;;;;4954580;28;20463;-63
2022/01/10 13:55:36;;;;;;;46.03;9.43;;;6.20;37.70;;;;;;4966341;28;20575;-64
2022/01/10 13:58:07;;;;;;;43.90;10.80;;;6.20;37.50;;;;;;4963968;28;20525;-63
2022/01/10 14:00:37;;;;;;;43.83;9.60;;;6.20;38.20;;;;;;4978124;28;20488;-63
2022/01/10 14:03:05;;;;;;;47.57;11.17;;;6.20;37.70;;;;;;4981199;28;20473;-64
2022/01/10 14:05:33;;;;;;;47.63;10.40;;;6.20;37.60;;;;;;4966767;28;20468;-64
2022/01/10 14:08:01;;;;;;;43.60;11.23;;;6.20;37.50;;;;;;4967872;28;20466;-64
2022/01/10 14:10:29;;;;;;;49.67;13.50;;;6.20;37.60;;;;;;4965768;28;21198;-63
2022/01/10 14:12:57;;;;;;;44.90;11.50;;;6.20;37.60;;;;;;4967861;28;20489;-62
2022/01/10 14:15:26;;;;;;;42.03;9.70;;;6.20;37.70;;;;;;4968659;28;20484;-62
2022/01/10 14:17:54;;;;;;;50.07;13.07;;;6.10;37.60;;;;;;4956971;28;20497;-63
2022/01/10 14:20:22;;;;;;;54.10;15.63;;;6.10;37.40;;;;;;4964548;28;20521;-63
2022/01/10 14:22:50;;;;;;;49.17;13.03;;;6.10;37.00;;;;;;4960835;28;20471;-63
2022/01/10 14:25:18;;;;;;;40.23;9.57;;;6.00;36.90;;;;;;4953582;28;20462;-63
2022/01/10 14:27:46;;;;;;;42.13;8.90;;;6.00;37.00;;;;;;4966386;28;20958;-63
2022/01/10 14:30:13;;;;;;;46.60;11.73;;;5.90;37.20;;;;;;4970771;28;20898;-63
2022/01/10 14:32:40;;;;;;;46.97;12.60;;;5.90;37.60;;;;;;4981972;28;20874;-63
2022/01/10 14:35:10;;;;;;;48.03;14.20;;;5.90;37.60;;;;;;4969413;28;20459;-62
2022/01/10 14:37:37;;;;;;;45.27;10.60;;;5.80;37.60;;;;;;4951293;28;20529;-63
2022/01/10 14:40:04;;;;;;;43.03;9.30;;;5.80;37.50;;;;;;4964734;28;20477;-63
2022/01/10 14:42:32;;;;;;;48.93;11.90;;;5.80;37.30;;;;;;4974715;28;20961;-63
2022/01/10 14:44:59;;;;;;;47.70;11.90;;;5.70;37.70;;;;;;4964270;28;20970;-63
2022/01/10 14:47:26;;;;;;;53.03;15.40;;;5.70;38.10;;;;;;4967941;28;20428;-63
2022/01/10 14:49:53;;;;;;;50.00;13.90;;;5.70;38.10;;;;;;4969133;28;21121;-64
2022/01/10 14:52:21;;;;;;;49.43;13.87;;;5.70;37.90;;;;;;4966221;28;20469;-64
2022/01/10 14:54:48;;;;;;;51.80;13.90;;;5.70;38.30;;;;;;4968019;28;20536;-63
2022/01/10 14:57:22;;;;;;;51.50;15.10;;;5.60;38.00;;;;;;4967944;28;20512;-63
2022/01/10 14:59:48;;;;;;;53.67;15.23;;;5.60;37.90;;;;;;4969289;28;20471;-62
2022/01/10 15:02:15;;;;;;;57.03;18.60;;;5.60;38.20;;;;;;4976420;28;20487;-63
2022/01/10 15:04:42;;;;;;;64.10;19.00;;;5.50;38.40;;;;;;4975967;28;20458;-63
2022/01/10 15:07:09;;;;;;;59.60;18.33;;;5.40;38.60;;;;;;4964192;28;20514;-63
2022/01/10 15:09:37;;;;;;;49.43;14.80;;;5.40;38.60;;;;;;4951203;28;21003;-63
2022/01/10 15:12:04;;;;;;;49.00;14.67;;;5.40;38.70;;;;;;4957743;28;21069;-63
2022/01/10 15:14:31;;;;;;;55.10;15.83;;;5.40;38.70;;;;;;4977364;28;20510;-63
2022/01/10 15:16:57;;;;;;;51.73;13.97;;;5.30;38.80;;;;;;4966467;28;20485;-63
2022/01/10 15:19:25;;;;;;;47.50;14.37;;;5.30;38.90;;;;;;4960356;28;20472;-62
2022/01/10 15:21:52;;;;;;;47.10;14.40;;;5.20;38.90;;;;;;4955622;28;20493;-63
2022/01/10 15:24:19;;;;;;;48.30;14.07;;;5.20;38.90;;;;;;4970943;28;20676;-62
2022/01/10 15:26:47;;;;;;;52.67;14.03;;;5.10;39.00;;;;;;4955955;28;20466;-63
2022/01/10 15:29:14;;;;;;;50.90;14.17;;;5.00;38.90;;;;;;4965810;28;20469;-62
2022/01/10 15:31:40;;;;;;;49.77;12.17;;;5.00;39.00;;;;;;4962341;28;20497;-62
2022/01/10 15:34:08;;;;;;;46.43;10.17;;;4.90;39.30;;;;;;4969088;28;20492;-63
2022/01/10 15:36:35;;;;;;;46.73;10.30;;;4.80;39.30;;;;;;4987444;28;20564;-62
2022/01/10 15:39:02;;;;;;;48.10;11.80;;;4.80;39.40;;;;;;4952057;28;20462;-63
2022/01/10 15:41:29;;;;;;;45.67;11.47;;;4.70;39.50;;;;;;4968998;28;20547;-63
2022/01/10 15:43:58;;;;;;;49.63;13.67;;;4.60;39.60;;;;;;4967108;28;20532;-62
2022/01/10 15:46:25;;;;;;;50.80;14.43;;;4.50;39.70;;;;;;4962553;28;20964;-63
2022/01/10 15:48:52;;;;;;;50.10;15.50;;;4.50;39.80;;;;;;4968478;28;20473;-63
2022/01/10 15:51:19;;;;;;;55.67;15.20;;;4.40;39.90;;;;;;4968521;28;20505;-62
2022/01/10 15:53:46;;;;;;;48.47;12.97;;;4.30;39.90;;;;;;4959931;28;20469;-63
2022/01/10 15:56:13;;;;;;;47.10;13.30;;;4.30;40.20;;;;;;4978675;28;20489;-62
2022/01/10 15:58:40;;;;;;;52.93;14.17;;;4.10;40.40;;;;;;4988745;28;20487;-63
2022/01/10 16:01:10;;;;;;;54.50;13.20;;;4.10;40.50;;;;;;4980929;28;20482;-63
2022/01/10 16:03:37;;;;;;;53.30;14.13;;;4.00;40.60;;;;;;4965541;28;20458;-64
2022/01/10 16:06:05;;;;;;;51.47;15.60;;;4.00;40.80;;;;;;4975413;28;20449;-63
2022/01/10 16:08:33;;;;;;;52.00;15.03;;;4.00;40.90;;;;;;4965181;28;20473;-63
2022/01/10 16:11:00;;;;;;;49.53;13.10;;;3.90;41.20;;;;;;4963554;28;20572;-61
2022/01/10 16:13:28;;;;;;;53.53;13.20;;;3.80;41.10;;;;;;4969099;28;20465;-64
2022/01/10 16:15:55;;;;;;;48.90;13.47;;;3.80;41.30;;;;;;4974836;28;20481;-64
2022/01/10 16:18:23;;;;;;;56.03;12.90;;;3.80;41.60;;;;;;4971342;28;20476;-63
2022/01/10 16:20:50;;;;;;;52.47;13.50;;;3.70;41.70;;;;;;4965348;28;20475;-65
2022/01/10 16:23:16;;;;;;;52.63;12.80;;;3.70;41.80;;;;;;4970984;28;20469;-65
2022/01/10 16:25:43;;;;;;;53.40;14.50;;;3.70;42.00;;;;;;4973475;28;20476;-64
2022/01/10 16:28:10;;;;;;;51.57;14.37;;;3.60;41.90;;;;;;4970853;28;20845;-64
2022/01/10 16:30:37;;;;;;;52.87;14.90;;;3.50;42.00;;;;;;4972720;28;20482;-63
2022/01/10 16:33:04;;;;;;;49.13;13.80;;;3.50;42.10;;;;;;4981207;28;20489;-66
2022/01/10 16:35:32;;;;;;;50.47;13.27;;;3.50;42.30;;;;;;4967875;28;20472;-65
2022/01/10 16:37:58;;;;;;;52.70;14.13;;;3.60;42.30;;;;;;4980927;28;20508;-66
2022/01/10 16:40:25;;;;;;;50.03;14.10;;;3.60;42.30;;;;;;4972097;28;20485;-65
2022/01/10 16:42:52;;;;;;;49.63;13.50;;;3.60;42.30;;;;;;4971050;28;20477;-64
2022/01/10 16:45:18;;;;;;;49.17;13.37;;;3.60;43.00;;;;;;4972135;28;20461;-63
2022/01/10 16:47:45;;;;;;;48.23;13.00;;;3.60;42.40;;;;;;4973069;28;20492;-63
2022/01/10 16:50:13;;;;;;;53.93;13.20;;;3.70;42.50;;;;;;4971021;28;20462;-65
2022/01/10 16:52:42;;;;;;;54.43;12.17;;;3.70;42.50;;;;;;4975257;28;20463;-66
2022/01/10 16:55:11;;;;;;;46.10;12.30;;;3.70;42.50;;;;;;4970663;28;20457;-64
2022/01/10 16:57:38;;;;;;;50.47;12.03;;;3.70;42.50;;;;;;4976130;28;20933;-64
2022/01/10 17:00:06;;;;;;;50.93;13.50;;;3.80;42.50;;;;;;4984056;28;20458;-64
2022/01/10 17:02:33;;;;;;;48.67;11.27;;;3.80;42.50;;;;;;4973565;28;20436;-66
2022/01/10 17:05:00;;;;;;;48.67;11.87;;;3.70;42.60;;;;;;4969133;28;20439;-64
2022/01/10 17:07:27;;;;;;;48.53;12.50;;;3.80;42.60;;;;;;4969022;28;20472;-66
2022/01/10 17:09:56;;;;;;;45.80;11.30;;;3.90;42.90;;;;;;4967812;28;20470;-66
2022/01/10 17:12:24;;;;;;;47.67;12.70;;;3.90;42.70;;;;;;4954028;28;20476;-62
2022/01/10 17:14:50;;;;;;;52.10;13.20;;;3.90;42.80;;;;;;4964469;28;20498;-67
2022/01/10 17:17:18;;;;;;;51.03;13.13;;;4.00;42.80;;;;;;4970212;28;21003;-64
2022/01/10 17:19:45;;;;;;;48.27;11.90;;;4.00;42.60;;;;;;4969344;28;20551;-64
2022/01/10 17:22:12;;;;;;;55.70;13.80;;;4.00;42.40;;;;;;4972368;28;21083;-64
2022/01/10 17:24:39;;;;;;;52.93;13.90;;;4.00;42.40;;;;;;4970762;28;20469;-62
2022/01/10 17:27:07;;;;;;;54.80;14.27;;;4.10;42.40;;;;;;4967639;28;20463;-64
2022/01/10 17:29:34;;;;;;;53.13;16.10;;;4.10;42.40;;;;;;4971302;28;20470;-64
2022/01/10 17:32:01;;;;;;;55.07;16.20;;;4.10;42.30;;;;;;4969185;28;20956;-65
2022/01/10 17:34:29;;;;;;;60.37;17.80;;;4.10;42.40;;;;;;4966547;28;20469;-64
2022/01/10 17:36:55;;;;;;;50.27;16.20;;;4.10;42.40;;;;;;4975469;28;20493;-64
2022/01/10 17:39:22;;;;;;;51.40;12.83;;;4.10;42.40;;;;;;4974083;28;20473;-63
2022/01/10 17:41:49;;;;;;;50.90;13.50;;;4.20;42.30;;;;;;4978517;28;20481;-64
2022/01/10 17:44:17;;;;;;;50.77;15.17;;;4.20;42.30;;;;;;4969472;28;20538;-64
2022/01/10 17:46:45;;;;;;;52.50;14.70;;;4.20;42.20;;;;;;4970411;28;20477;-64
2022/01/10 17:49:15;;;;;;;48.77;12.50;;;4.20;42.30;;;;;;4973971;28;20482;-63
2022/01/10 17:51:48;;;;;;;52.13;13.07;;;4.20;42.30;;;;;;4972359;28;20485;-65
2022/01/10 17:54:17;;;;;;;54.37;14.43;;;4.20;42.30;;;;;;4971815;28;20476;-63
2022/01/10 17:56:44;;;;;;;53.27;12.40;;;4.20;42.20;;;;;;4970754;28;20481;-64
2022/01/10 17:59:11;;;;;;;46.27;13.43;;;4.10;42.30;;;;;;4972188;28;21005;-63
2022/01/10 18:01:39;;;;;;;47.57;12.07;;;4.20;42.30;;;;;;4971951;28;20481;-64
2022/01/10 18:04:05;;;;;;;57.30;13.50;;;4.20;42.20;;;;;;4975054;28;20470;-64
2022/01/10 18:06:32;;;;;;;68.47;20.27;;;4.10;42.20;;;;;;4964270;28;20469;-64
2022/01/10 18:08:59;;;;;;;60.83;22.30;;;4.00;42.30;;;;;;4968405;28;20481;-64
2022/01/10 18:11:26;;;;;;;70.53;28.03;;;4.00;42.40;;;;;;4965839;28;20485;-63
2022/01/10 18:13:53;;;;;;;73.57;28.50;;;4.00;42.50;;;;;;4968870;28;21078;-66
2022/01/10 18:16:24;;;;;;;61.10;18.83;;;3.90;42.60;;;;;;4965120;28;20949;-64
2022/01/10 18:18:52;;;;;;;54.30;17.47;;;3.80;42.70;;;;;;4966922;28;20469;-67
2022/01/10 18:21:19;;;;;;;52.47;16.53;;;3.80;42.90;;;;;;4969251;28;20500;-67
2022/01/10 18:23:46;;;;;;;55.63;17.10;;;3.80;42.80;;;;;;4959444;28;20461;-67
2022/01/10 18:26:12;;;;;;;49.07;14.90;;;3.70;42.90;;;;;;4969584;28;20490;-67
2022/01/10 18:28:39;;;;;;;54.87;17.13;;;3.60;43.00;;;;;;4963046;28;20466;-67
2022/01/10 18:31:06;;;;;;;51.33;17.07;;;3.60;43.10;;;;;;4968255;28;20485;-68
2022/01/10 18:33:34;;;;;;;59.93;17.93;;;3.60;43.20;;;;;;4968349;28;20462;-67
2022/01/10 18:36:02;;;;;;;56.80;17.77;;;3.50;43.30;;;;;;4971836;28;20565;-67
2022/01/10 18:38:29;;;;;;;59.87;19.30;;;3.60;43.40;;;;;;4968116;28;20488;-68
2022/01/10 18:40:57;;;;;;;62.20;19.80;;;3.60;43.40;;;;;;4968093;28;20477;-67
2022/01/10 18:43:24;;;;;;;62.70;20.90;;;3.50;43.30;;;;;;4968227;28;20621;-68
2022/01/10 18:45:53;;;;;;;66.80;23.87;;;3.50;43.20;;;;;;4971247;28;20465;-68
2022/01/10 18:48:20;;;;;;;79.20;27.97;;;3.50;43.20;;;;;;4969527;28;20461;-68
2022/01/10 18:50:47;;;;;;;75.50;26.23;;;3.50;43.10;;;;;;4967232;28;20490;-68
2022/01/10 18:53:15;;;;;;;68.03;22.33;;;3.50;43.40;;;;;;4970200;28;20979;-68
2022/01/10 18:55:44;;;;;;;65.50;19.40;;;3.40;43.40;;;;;;4964023;28;20532;-66
2022/01/10 18:58:11;;;;;;;55.70;17.10;;;3.40;43.40;;;;;;4964230;28;20489;-68
2022/01/10 19:00:38;;;;;;;54.90;17.97;;;3.30;43.50;;;;;;4966656;28;20489;-68
2022/01/10 19:03:05;;;;;;;55.70;18.10;;;3.30;43.50;;;;;;4956806;28;20478;-67
2022/01/10 19:05:31;;;;;;;61.17;17.80;;;3.20;43.50;;;;;;4967144;28;20469;-70
2022/01/10 19:07:58;;;;;;;51.67;15.03;;;3.20;43.70;;;;;;4987822;28;20463;-68
2022/01/10 19:10:27;;;;;;;54.33;16.07;;;3.20;43.80;;;;;;4972716;28;20485;-67
2022/01/10 19:12:53;;;;;;;59.73;17.67;;;3.10;43.80;;;;;;4966338;28;21192;-67
2022/01/10 19:15:21;;;;;;;55.90;18.30;;;3.10;43.90;;;;;;4964523;28;21010;-68
2022/01/10 19:17:48;;;;;;;59.07;19.00;;;3.10;43.90;;;;;;4974789;28;20474;-68
2022/01/10 19:20:15;;;;;;;58.33;18.57;;;3.00;44.00;;;;;;4964103;28;20568;-68
2022/01/10 19:22:42;;;;;;;60.87;16.83;;;3.00;44.30;;;;;;5016265;23;20499;-69
2022/01/10 19:25:10;;;;;;;63.40;17.70;;;2.90;44.30;;;;;;5007672;28;20487;-69
2022/01/10 19:27:38;;;;;;;59.37;19.10;;;2.90;44.30;;;;;;5008472;28;20531;-69
2022/01/10 19:30:06;;;;;;;62.03;18.40;;;2.90;44.50;;;;;;5006910;28;20468;-69
2022/01/10 19:32:34;;;;;;;60.23;18.57;;;2.90;44.50;;;;;;5008491;28;20434;-70
2022/01/10 19:35:01;;;;;;;63.83;21.10;;;2.90;44.60;;;;;;5001971;28;20471;-71
2022/01/10 19:37:27;;;;;;;63.13;20.50;;;2.90;44.70;;;;;;5008045;28;20558;-71
2022/01/10 19:39:54;;;;;;;61.20;19.17;;;3.00;44.70;;;;;;5006776;28;20460;-70
2022/01/10 19:42:21;;;;;;;64.13;18.83;;;3.00;44.60;;;;;;5007121;28;20456;-70
2022/01/10 19:44:49;;;;;;;56.37;17.50;;;3.00;44.60;;;;;;5007902;28;20454;-70
2022/01/10 19:47:16;;;;;;;59.70;18.03;;;3.10;44.70;;;;;;5008055;28;20452;-69
2022/01/10 19:49:42;;;;;;;62.23;20.20;;;3.10;44.80;;;;;;5008195;28;20979;-69
2022/01/10 19:52:09;;;;;;;56.27;16.87;;;3.20;44.70;;;;;;5008687;28;20451;-70
2022/01/10 19:54:36;;;;;;;55.80;16.57;;;3.20;44.70;;;;;;5008262;28;20470;-69
2022/01/10 19:57:03;;;;;;;55.67;16.03;;;3.20;44.60;;;;;;5008424;28;20463;-69
2022/01/10 19:59:32;;;;;;;62.03;18.97;;;3.30;44.80;;;;;;5008306;28;20467;-69
2022/01/10 20:02:00;;;;;;;65.33;17.93;;;3.30;44.70;;;;;;5008936;28;20460;-70
2022/01/10 20:04:27;;;;;;;56.70;17.70;;;3.30;44.80;;;;;;5007442;28;20989;-69
2022/01/10 20:06:54;;;;;;;56.60;16.90;;;3.30;44.70;;;;;;5008341;28;20854;-69
2022/01/10 20:09:20;;;;;;;57.03;18.37;;;3.20;44.60;;;;;;5006786;28;20466;-68
2022/01/10 20:11:47;;;;;;;56.57;16.10;;;3.20;44.80;;;;;;5007762;28;20980;-71
2022/01/10 20:14:14;;;;;;;51.53;14.90;;;3.20;44.80;;;;;;5007204;28;20521;-69
2022/01/10 20:16:42;;;;;;;61.00;16.23;;;3.20;44.80;;;;;;4990758;28;20484;-69
2022/01/10 20:19:11;;;;;;;59.17;16.50;;;3.20;44.70;;;;;;4989168;28;20463;-70
2022/01/10 20:21:38;;;;;;;62.00;17.57;;;3.20;44.80;;;;;;4993340;28;20461;-70
2022/01/10 20:24:06;;;;;;;56.27;15.40;;;3.10;44.80;;;;;;4998685;28;20464;-70
2022/01/10 20:26:34;;;;;;;56.43;15.60;;;3.10;44.80;;;;;;4996138;28;20480;-70
2022/01/10 20:29:01;;;;;;;52.27;16.03;;;3.10;44.70;;;;;;5007842;28;20462;-69
2022/01/10 20:31:29;;;;;;;54.07;15.87;;;3.10;44.60;;;;;;5006944;28;20843;-70
2022/01/10 20:33:56;;;;;;;61.67;16.53;;;3.00;44.70;;;;;;5006597;28;20464;-69
2022/01/10 20:36:25;;;;;;;57.80;18.67;;;3.00;44.70;;;;;;5006010;28;20499;-70